sensor_id;sensor_type;location;lat;lon;timestamp;P1;durP1;ratioP1;P2;durP2;ratioP2
44564;SDS011;30275;51.822;-0.326;2022-07-29T00:02:13;2.95;;;1.23;;
44564;SDS011;30275;51.822;-0.326;2022-07-29T00:04:38;1.67;;;1.13;;
44564;SDS011;30275;51.822;-0.326;2022-07-29T00:07:04;2.70;;;1.35;;
44564;SDS011;30275;51.822;-0.326;2022-07-29T00:09:30;1.23;;;1.02;;
44564;SDS011;30275;51.822;-0.326;2022-07-29T00:11:57;1.58;;;1.17;;
44564;SDS011;30275;51.822;-0.326;2022-07-29T00:14:25;2.30;;;1.00;;
44564;SDS011;30275;51.822;-0.326;2022-07-29T00:16:51;3.40;;;1.30;;
44564;SDS011;30275;51.822;-0.326;2022-07-29T00:19:16;1.65;;;1.15;;
44564;SDS011;30275;51.822;-0.326;2022-07-29T00:21:42;2.10;;;1.13;;
44564;SDS011;30275;51.822;-0.326;2022-07-29T00:24:08;2.25;;;0.90;;
44564;SDS011;30275;51.822;-0.326;2022-07-29T00:26:34;1.20;;;0.95;;
44564;SDS011;30275;51.822;-0.326;2022-07-29T00:29:00;1.80;;;1.20;;
44564;SDS011;30275;51.822;-0.326;2022-07-29T00:31:27;3.80;;;1.20;;
44564;SDS011;30275;51.822;-0.326;2022-07-29T00:33:52;2.33;;;1.13;;
44564;SDS011;30275;51.822;-0.326;2022-07-29T00:36:18;1.50;;;1.10;;
44564;SDS011;30275;51.822;-0.326;2022-07-29T00:38:46;3.28;;;1.23;;
44564;SDS011;30275;51.822;-0.326;2022-07-29T00:41:12;2.03;;;1.08;;
44564;SDS011;30275;51.822;-0.326;2022-07-29T00:43:38;1.48;;;1.10;;
44564;SDS011;30275;51.822;-0.326;2022-07-29T00:46:03;2.05;;;1.20;;
44564;SDS011;30275;51.822;-0.326;2022-07-29T00:48:29;2.20;;;1.15;;
44564;SDS011;30275;51.822;-0.326;2022-07-29T00:50:56;2.08;;;1.00;;
44564;SDS011;30275;51.822;-0.326;2022-07-29T00:53:23;3.03;;;1.20;;
44564;SDS011;30275;51.822;-0.326;2022-07-29T00:55:50;2.00;;;1.33;;
44564;SDS011;30275;51.822;-0.326;2022-07-29T00:58:16;1.20;;;1.00;;
44564;SDS011;30275;51.822;-0.326;2022-07-29T01:00:41;1.73;;;1.10;;
44564;SDS011;30275;51.822;-0.326;2022-07-29T01:03:08;4.15;;;1.10;;
44564;SDS011;30275;51.822;-0.326;2022-07-29T01:05:34;2.33;;;1.25;;
44564;SDS011;30275;51.822;-0.326;2022-07-29T01:08:00;1.85;;;1.10;;
44564;SDS011;30275;51.822;-0.326;2022-07-29T01:10:27;3.22;;;1.00;;
44564;SDS011;30275;51.822;-0.326;2022-07-29T01:12:54;2.95;;;1.50;;
44564;SDS011;30275;51.822;-0.326;2022-07-29T01:15:23;2.88;;;1.20;;
44564;SDS011;30275;51.822;-0.326;2022-07-29T01:17:59;2.50;;;1.13;;
44564;SDS011;30275;51.822;-0.326;2022-07-29T01:31:51;2.40;;;1.10;;
44564;SDS011;30275;51.822;-0.326;2022-07-29T01:34:21;3.53;;;1.20;;
44564;SDS011;30275;51.822;-0.326;2022-07-29T01:37:01;1.60;;;1.17;;
44564;SDS011;30275;51.822;-0.326;2022-07-29T01:39:35;2.53;;;1.20;;
44564;SDS011;30275;51.822;-0.326;2022-07-29T01:42:17;2.45;;;1.20;;
44564;SDS011;30275;51.822;-0.326;2022-07-29T01:48:22;1.15;;;0.93;;
44564;SDS011;30275;51.822;-0.326;2022-07-29T01:50:31;1.48;;;1.30;;
44564;SDS011;30275;51.822;-0.326;2022-07-29T01:53:00;4.85;;;2.10;;
44564;SDS011;30275;51.822;-0.326;2022-07-29T01:55:29;2.47;;;1.20;;
44564;SDS011;30275;51.822;-0.326;2022-07-29T01:57:59;2.30;;;1.30;;
44564;SDS011;30275;51.822;-0.326;2022-07-29T02:00:26;4.07;;;1.27;;
44564;SDS011;30275;51.822;-0.326;2022-07-29T02:02:53;2.97;;;1.40;;
44564;SDS011;30275;51.822;-0.326;2022-07-29T02:05:21;1.48;;;1.20;;
44564;SDS011;30275;51.822;-0.326;2022-07-29T02:07:48;2.95;;;1.00;;
44564;SDS011;30275;51.822;-0.326;2022-07-29T02:10:15;2.03;;;1.08;;
44564;SDS011;30275;51.822;-0.326;2022-07-29T02:12:46;2.55;;;1.00;;
44564;SDS011;30275;51.822;-0.326;2022-07-29T02:15:13;4.00;;;1.25;;
44564;SDS011;30275;51.822;-0.326;2022-07-29T02:17:42;3.75;;;1.20;;
44564;SDS011;30275;51.822;-0.326;2022-07-29T02:20:13;2.70;;;1.10;;
44564;SDS011;30275;51.822;-0.326;2022-07-29T02:22:40;6.47;;;1.60;;
44564;SDS011;30275;51.822;-0.326;2022-07-29T02:25:08;3.72;;;1.52;;
44564;SDS011;30275;51.822;-0.326;2022-07-29T02:27:36;3.03;;;1.20;;
44564;SDS011;30275;51.822;-0.326;2022-07-29T02:30:04;1.98;;;1.10;;
44564;SDS011;30275;51.822;-0.326;2022-07-29T02:32:32;2.88;;;1.33;;
44564;SDS011;30275;51.822;-0.326;2022-07-29T02:35:00;5.35;;;1.30;;
44564;SDS011;30275;51.822;-0.326;2022-07-29T02:37:27;2.90;;;0.95;;
44564;SDS011;30275;51.822;-0.326;2022-07-29T02:39:54;2.15;;;1.10;;
44564;SDS011;30275;51.822;-0.326;2022-07-29T02:42:22;4.53;;;1.50;;
44564;SDS011;30275;51.822;-0.326;2022-07-29T02:44:51;2.85;;;1.08;;
44564;SDS011;30275;51.822;-0.326;2022-07-29T02:50:02;1.98;;;1.20;;
44564;SDS011;30275;51.822;-0.326;2022-07-29T02:55:15;2.05;;;1.13;;
44564;SDS011;30275;51.822;-0.326;2022-07-29T02:57:49;3.17;;;1.20;;
44564;SDS011;30275;51.822;-0.326;2022-07-29T03:00:27;3.45;;;1.20;;
44564;SDS011;30275;51.822;-0.326;2022-07-29T03:02:56;1.48;;;1.00;;
44564;SDS011;30275;51.822;-0.326;2022-07-29T03:05:24;4.28;;;1.35;;
44564;SDS011;30275;51.822;-0.326;2022-07-29T03:07:53;3.83;;;1.35;;
44564;SDS011;30275;51.822;-0.326;2022-07-29T03:10:21;1.70;;;0.88;;
44564;SDS011;30275;51.822;-0.326;2022-07-29T03:12:50;1.42;;;0.90;;
44564;SDS011;30275;51.822;-0.326;2022-07-29T03:15:16;4.05;;;1.10;;
44564;SDS011;30275;51.822;-0.326;2022-07-29T03:17:43;4.60;;;1.63;;
44564;SDS011;30275;51.822;-0.326;2022-07-29T03:20:09;2.15;;;0.80;;
44564;SDS011;30275;51.822;-0.326;2022-07-29T03:22:40;1.67;;;1.20;;
44564;SDS011;30275;51.822;-0.326;2022-07-29T03:25:15;1.80;;;1.00;;
44564;SDS011;30275;51.822;-0.326;2022-07-29T03:27:43;4.88;;;1.23;;
44564;SDS011;30275;51.822;-0.326;2022-07-29T03:30:10;3.50;;;1.23;;
44564;SDS011;30275;51.822;-0.326;2022-07-29T03:32:37;2.05;;;1.30;;
44564;SDS011;30275;51.822;-0.326;2022-07-29T03:35:04;1.77;;;0.77;;
44564;SDS011;30275;51.822;-0.326;2022-07-29T03:37:30;1.95;;;0.93;;
44564;SDS011;30275;51.822;-0.326;2022-07-29T03:39:57;4.07;;;1.10;;
44564;SDS011;30275;51.822;-0.326;2022-07-29T03:42:24;1.92;;;1.05;;
44564;SDS011;30275;51.822;-0.326;2022-07-29T03:44:53;2.10;;;0.95;;
44564;SDS011;30275;51.822;-0.326;2022-07-29T03:47:22;2.30;;;1.10;;
44564;SDS011;30275;51.822;-0.326;2022-07-29T03:49:54;5.05;;;1.70;;
44564;SDS011;30275;51.822;-0.326;2022-07-29T03:52:24;3.67;;;1.42;;
44564;SDS011;30275;51.822;-0.326;2022-07-29T03:54:50;6.00;;;1.60;;
44564;SDS011;30275;51.822;-0.326;2022-07-29T03:57:16;2.42;;;1.08;;
44564;SDS011;30275;51.822;-0.326;2022-07-29T03:59:43;2.95;;;1.30;;
44564;SDS011;30275;51.822;-0.326;2022-07-29T04:02:11;2.10;;;1.27;;
44564;SDS011;30275;51.822;-0.326;2022-07-29T04:04:37;2.08;;;1.60;;
44564;SDS011;30275;51.822;-0.326;2022-07-29T04:07:03;1.88;;;1.10;;
44564;SDS011;30275;51.822;-0.326;2022-07-29T04:09:29;1.20;;;1.10;;
44564;SDS011;30275;51.822;-0.326;2022-07-29T04:11:55;0.88;;;0.80;;
44564;SDS011;30275;51.822;-0.326;2022-07-29T04:14:21;3.58;;;1.10;;
44564;SDS011;30275;51.822;-0.326;2022-07-29T04:16:47;3.35;;;1.00;;
44564;SDS011;30275;51.822;-0.326;2022-07-29T04:19:13;0.90;;;0.80;;
44564;SDS011;30275;51.822;-0.326;2022-07-29T04:21:39;2.35;;;0.95;;
44564;SDS011;30275;51.822;-0.326;2022-07-29T04:24:05;2.15;;;1.00;;
44564;SDS011;30275;51.822;-0.326;2022-07-29T04:26:32;1.33;;;1.00;;
44564;SDS011;30275;51.822;-0.326;2022-07-29T04:28:58;1.35;;;0.90;;
44564;SDS011;30275;51.822;-0.326;2022-07-29T04:31:24;1.58;;;1.15;;
44564;SDS011;30275;51.822;-0.326;2022-07-29T04:33:50;2.05;;;1.00;;
44564;SDS011;30275;51.822;-0.326;2022-07-29T04:36:16;3.30;;;1.10;;
44564;SDS011;30275;51.822;-0.326;2022-07-29T04:38:41;2.85;;;1.00;;
44564;SDS011;30275;51.822;-0.326;2022-07-29T04:41:07;1.63;;;1.00;;
44564;SDS011;30275;51.822;-0.326;2022-07-29T04:43:34;3.38;;;1.00;;
44564;SDS011;30275;51.822;-0.326;2022-07-29T04:46:00;1.98;;;1.30;;
44564;SDS011;30275;51.822;-0.326;2022-07-29T04:48:26;1.30;;;0.93;;
44564;SDS011;30275;51.822;-0.326;2022-07-29T04:50:51;1.90;;;1.08;;
44564;SDS011;30275;51.822;-0.326;2022-07-29T04:53:17;1.73;;;0.93;;
44564;SDS011;30275;51.822;-0.326;2022-07-29T04:55:43;1.85;;;1.10;;
44564;SDS011;30275;51.822;-0.326;2022-07-29T04:58:10;1.35;;;1.00;;
44564;SDS011;30275;51.822;-0.326;2022-07-29T05:00:36;1.33;;;1.02;;
44564;SDS011;30275;51.822;-0.326;2022-07-29T05:03:02;3.65;;;1.15;;
44564;SDS011;30275;51.822;-0.326;2022-07-29T05:05:28;2.55;;;1.17;;
44564;SDS011;30275;51.822;-0.326;2022-07-29T05:07:54;2.00;;;1.25;;
44564;SDS011;30275;51.822;-0.326;2022-07-29T05:10:20;2.42;;;0.85;;
44564;SDS011;30275;51.822;-0.326;2022-07-29T05:12:45;2.88;;;1.05;;
44564;SDS011;30275;51.822;-0.326;2022-07-29T05:15:12;3.17;;;1.10;;
44564;SDS011;30275;51.822;-0.326;2022-07-29T05:17:37;2.83;;;1.08;;
44564;SDS011;30275;51.822;-0.326;2022-07-29T05:20:04;2.45;;;1.33;;
44564;SDS011;30275;51.822;-0.326;2022-07-29T05:22:30;1.75;;;0.90;;
44564;SDS011;30275;51.822;-0.326;2022-07-29T05:24:56;1.90;;;1.00;;
44564;SDS011;30275;51.822;-0.326;2022-07-29T05:27:21;2.72;;;1.15;;
44564;SDS011;30275;51.822;-0.326;2022-07-29T05:29:47;2.55;;;1.20;;
44564;SDS011;30275;51.822;-0.326;2022-07-29T05:32:13;4.47;;;1.50;;
44564;SDS011;30275;51.822;-0.326;2022-07-29T05:34:39;3.28;;;1.38;;
44564;SDS011;30275;51.822;-0.326;2022-07-29T05:37:05;3.08;;;1.25;;
44564;SDS011;30275;51.822;-0.326;2022-07-29T05:39:31;3.15;;;1.23;;
44564;SDS011;30275;51.822;-0.326;2022-07-29T05:41:56;2.50;;;1.20;;
44564;SDS011;30275;51.822;-0.326;2022-07-29T05:44:22;2.25;;;1.33;;
44564;SDS011;30275;51.822;-0.326;2022-07-29T05:46:48;2.30;;;1.30;;
44564;SDS011;30275;51.822;-0.326;2022-07-29T05:49:13;3.28;;;1.50;;
44564;SDS011;30275;51.822;-0.326;2022-07-29T05:51:39;3.15;;;1.20;;
44564;SDS011;30275;51.822;-0.326;2022-07-29T05:54:05;2.22;;;1.25;;
44564;SDS011;30275;51.822;-0.326;2022-07-29T05:56:31;4.35;;;1.40;;
44564;SDS011;30275;51.822;-0.326;2022-07-29T05:58:57;1.27;;;1.10;;
44564;SDS011;30275;51.822;-0.326;2022-07-29T06:01:23;4.68;;;1.67;;
44564;SDS011;30275;51.822;-0.326;2022-07-29T06:03:49;2.05;;;1.02;;
44564;SDS011;30275;51.822;-0.326;2022-07-29T06:06:15;5.97;;;1.52;;
44564;SDS011;30275;51.822;-0.326;2022-07-29T06:08:40;6.80;;;1.38;;
44564;SDS011;30275;51.822;-0.326;2022-07-29T06:11:06;4.50;;;1.30;;
44564;SDS011;30275;51.822;-0.326;2022-07-29T06:13:33;6.55;;;1.75;;
44564;SDS011;30275;51.822;-0.326;2022-07-29T06:15:59;7.70;;;2.10;;
44564;SDS011;30275;51.822;-0.326;2022-07-29T06:18:25;5.18;;;2.05;;
44564;SDS011;30275;51.822;-0.326;2022-07-29T06:20:50;5.82;;;2.80;;
44564;SDS011;30275;51.822;-0.326;2022-07-29T06:23:17;7.53;;;2.28;;
44564;SDS011;30275;51.822;-0.326;2022-07-29T06:25:43;9.27;;;2.00;;
44564;SDS011;30275;51.822;-0.326;2022-07-29T06:28:09;7.43;;;1.98;;
44564;SDS011;30275;51.822;-0.326;2022-07-29T06:30:34;8.43;;;2.63;;
44564;SDS011;30275;51.822;-0.326;2022-07-29T06:33:00;9.30;;;2.50;;
44564;SDS011;30275;51.822;-0.326;2022-07-29T06:35:27;8.10;;;1.92;;
44564;SDS011;30275;51.822;-0.326;2022-07-29T06:37:52;11.02;;;2.10;;
44564;SDS011;30275;51.822;-0.326;2022-07-29T06:40:18;9.77;;;1.70;;
44564;SDS011;30275;51.822;-0.326;2022-07-29T06:43:03;7.00;;;1.70;;
44564;SDS011;30275;51.822;-0.326;2022-07-29T06:45:29;2.58;;;1.48;;
44564;SDS011;30275;51.822;-0.326;2022-07-29T06:47:54;14.85;;;2.53;;
44564;SDS011;30275;51.822;-0.326;2022-07-29T06:50:20;6.47;;;1.70;;
44564;SDS011;30275;51.822;-0.326;2022-07-29T06:52:46;9.45;;;1.70;;
44564;SDS011;30275;51.822;-0.326;2022-07-29T06:55:12;5.57;;;1.38;;
44564;SDS011;30275;51.822;-0.326;2022-07-29T06:57:39;8.15;;;2.03;;
44564;SDS011;30275;51.822;-0.326;2022-07-29T07:00:05;6.57;;;1.67;;
44564;SDS011;30275;51.822;-0.326;2022-07-29T07:02:32;3.55;;;1.65;;
44564;SDS011;30275;51.822;-0.326;2022-07-29T07:04:58;4.78;;;1.50;;
44564;SDS011;30275;51.822;-0.326;2022-07-29T07:07:23;7.55;;;1.83;;
44564;SDS011;30275;51.822;-0.326;2022-07-29T07:09:49;7.97;;;2.00;;
44564;SDS011;30275;51.822;-0.326;2022-07-29T07:12:15;6.40;;;1.60;;
44564;SDS011;30275;51.822;-0.326;2022-07-29T07:14:41;11.90;;;3.08;;
44564;SDS011;30275;51.822;-0.326;2022-07-29T07:17:07;6.32;;;2.20;;
44564;SDS011;30275;51.822;-0.326;2022-07-29T07:19:32;8.48;;;2.35;;
44564;SDS011;30275;51.822;-0.326;2022-07-29T07:21:58;4.85;;;1.92;;
44564;SDS011;30275;51.822;-0.326;2022-07-29T07:24:24;7.93;;;2.22;;
44564;SDS011;30275;51.822;-0.326;2022-07-29T07:26:50;4.00;;;1.45;;
44564;SDS011;30275;51.822;-0.326;2022-07-29T07:29:16;4.80;;;1.58;;
44564;SDS011;30275;51.822;-0.326;2022-07-29T07:31:41;4.68;;;1.70;;
44564;SDS011;30275;51.822;-0.326;2022-07-29T07:34:07;5.03;;;1.60;;
44564;SDS011;30275;51.822;-0.326;2022-07-29T07:36:33;6.60;;;1.77;;
44564;SDS011;30275;51.822;-0.326;2022-07-29T07:38:59;5.00;;;1.63;;
44564;SDS011;30275;51.822;-0.326;2022-07-29T07:41:25;5.28;;;1.50;;
44564;SDS011;30275;51.822;-0.326;2022-07-29T07:43:50;11.77;;;2.08;;
44564;SDS011;30275;51.822;-0.326;2022-07-29T07:46:16;6.72;;;1.70;;
44564;SDS011;30275;51.822;-0.326;2022-07-29T07:48:42;8.13;;;1.77;;
44564;SDS011;30275;51.822;-0.326;2022-07-29T07:51:07;5.65;;;1.50;;
44564;SDS011;30275;51.822;-0.326;2022-07-29T07:53:33;5.15;;;1.38;;
44564;SDS011;30275;51.822;-0.326;2022-07-29T07:55:59;4.18;;;2.08;;
44564;SDS011;30275;51.822;-0.326;2022-07-29T07:58:25;6.35;;;1.80;;
44564;SDS011;30275;51.822;-0.326;2022-07-29T08:00:51;4.50;;;1.23;;
44564;SDS011;30275;51.822;-0.326;2022-07-29T08:03:17;6.47;;;1.92;;
44564;SDS011;30275;51.822;-0.326;2022-07-29T08:05:42;5.88;;;1.50;;
44564;SDS011;30275;51.822;-0.326;2022-07-29T08:08:08;3.42;;;1.65;;
44564;SDS011;30275;51.822;-0.326;2022-07-29T08:10:34;5.50;;;2.33;;
44564;SDS011;30275;51.822;-0.326;2022-07-29T08:13:18;4.05;;;2.05;;
44564;SDS011;30275;51.822;-0.326;2022-07-29T08:15:45;4.55;;;1.40;;
44564;SDS011;30275;51.822;-0.326;2022-07-29T08:18:14;2.75;;;1.30;;
44564;SDS011;30275;51.822;-0.326;2022-07-29T08:20:40;3.90;;;1.33;;
44564;SDS011;30275;51.822;-0.326;2022-07-29T08:23:06;6.68;;;4.43;;
44564;SDS011;30275;51.822;-0.326;2022-07-29T08:25:36;7.32;;;3.53;;
44564;SDS011;30275;51.822;-0.326;2022-07-29T08:28:04;4.45;;;3.00;;
44564;SDS011;30275;51.822;-0.326;2022-07-29T08:30:30;5.07;;;2.00;;
44564;SDS011;30275;51.822;-0.326;2022-07-29T08:32:57;9.35;;;2.90;;
44564;SDS011;30275;51.822;-0.326;2022-07-29T08:35:23;10.70;;;6.50;;
44564;SDS011;30275;51.822;-0.326;2022-07-29T08:37:49;20.17;;;10.95;;
44564;SDS011;30275;51.822;-0.326;2022-07-29T08:40:16;35.38;;;22.17;;
44564;SDS011;30275;51.822;-0.326;2022-07-29T08:42:45;23.30;;;14.13;;
44564;SDS011;30275;51.822;-0.326;2022-07-29T08:45:11;15.55;;;8.40;;
44564;SDS011;30275;51.822;-0.326;2022-07-29T08:47:40;13.73;;;6.18;;
44564;SDS011;30275;51.822;-0.326;2022-07-29T08:50:08;7.50;;;4.50;;
44564;SDS011;30275;51.822;-0.326;2022-07-29T08:52:35;4.65;;;3.05;;
44564;SDS011;30275;51.822;-0.326;2022-07-29T08:55:04;3.28;;;1.63;;
44564;SDS011;30275;51.822;-0.326;2022-07-29T08:57:31;3.65;;;1.35;;
44564;SDS011;30275;51.822;-0.326;2022-07-29T08:59:59;3.03;;;1.40;;
44564;SDS011;30275;51.822;-0.326;2022-07-29T09:02:27;3.92;;;1.40;;
44564;SDS011;30275;51.822;-0.326;2022-07-29T09:04:56;3.50;;;1.92;;
44564;SDS011;30275;51.822;-0.326;2022-07-29T09:07:25;3.45;;;1.75;;
44564;SDS011;30275;51.822;-0.326;2022-07-29T09:09:50;3.60;;;1.60;;
44564;SDS011;30275;51.822;-0.326;2022-07-29T09:12:16;4.20;;;1.70;;
44564;SDS011;30275;51.822;-0.326;2022-07-29T09:14:42;4.88;;;1.52;;
44564;SDS011;30275;51.822;-0.326;2022-07-29T09:17:08;4.65;;;1.50;;
44564;SDS011;30275;51.822;-0.326;2022-07-29T09:19:34;2.33;;;1.40;;
44564;SDS011;30275;51.822;-0.326;2022-07-29T09:22:03;4.55;;;1.70;;
44564;SDS011;30275;51.822;-0.326;2022-07-29T09:27:18;4.80;;;1.88;;
44564;SDS011;30275;51.822;-0.326;2022-07-29T09:29:47;3.05;;;1.40;;
44564;SDS011;30275;51.822;-0.326;2022-07-29T09:32:22;5.55;;;1.50;;
44564;SDS011;30275;51.822;-0.326;2022-07-29T09:34:48;4.30;;;2.05;;
44564;SDS011;30275;51.822;-0.326;2022-07-29T09:37:27;3.30;;;1.50;;
44564;SDS011;30275;51.822;-0.326;2022-07-29T09:39:53;7.43;;;1.58;;
44564;SDS011;30275;51.822;-0.326;2022-07-29T09:42:29;7.20;;;1.80;;
44564;SDS011;30275;51.822;-0.326;2022-07-29T09:44:57;4.57;;;1.48;;
44564;SDS011;30275;51.822;-0.326;2022-07-29T09:47:23;5.57;;;1.80;;
44564;SDS011;30275;51.822;-0.326;2022-07-29T09:50:13;5.50;;;2.20;;
44564;SDS011;30275;51.822;-0.326;2022-07-29T09:52:49;4.88;;;1.52;;
44564;SDS011;30275;51.822;-0.326;2022-07-29T09:55:17;15.88;;;2.95;;
44564;SDS011;30275;51.822;-0.326;2022-07-29T09:57:44;5.97;;;1.85;;
44564;SDS011;30275;51.822;-0.326;2022-07-29T10:00:14;15.27;;;3.05;;
44564;SDS011;30275;51.822;-0.326;2022-07-29T10:05:25;12.07;;;2.30;;
44564;SDS011;30275;51.822;-0.326;2022-07-29T10:07:54;10.50;;;2.10;;
44564;SDS011;30275;51.822;-0.326;2022-07-29T10:12:54;4.57;;;1.70;;
44564;SDS011;30275;51.822;-0.326;2022-07-29T10:17:52;10.43;;;2.13;;
44564;SDS011;30275;51.822;-0.326;2022-07-29T10:20:19;10.05;;;3.03;;
44564;SDS011;30275;51.822;-0.326;2022-07-29T10:22:46;7.60;;;2.05;;
44564;SDS011;30275;51.822;-0.326;2022-07-29T10:25:13;6.78;;;2.90;;
44564;SDS011;30275;51.822;-0.326;2022-07-29T10:27:41;4.45;;;1.80;;
44564;SDS011;30275;51.822;-0.326;2022-07-29T10:30:08;8.60;;;2.45;;
44564;SDS011;30275;51.822;-0.326;2022-07-29T10:40:49;8.35;;;1.80;;
44564;SDS011;30275;51.822;-0.326;2022-07-29T10:43:48;11.88;;;2.72;;
44564;SDS011;30275;51.822;-0.326;2022-07-29T10:46:16;9.10;;;2.78;;
44564;SDS011;30275;51.822;-0.326;2022-07-29T11:05:02;1.88;;;1.33;;
44564;SDS011;30275;51.822;-0.326;2022-07-29T11:07:30;2.60;;;1.45;;
44564;SDS011;30275;51.822;-0.326;2022-07-29T11:15:05;4.72;;;1.60;;
44564;SDS011;30275;51.822;-0.326;2022-07-29T11:31:17;4.32;;;1.75;;
44564;SDS011;30275;51.822;-0.326;2022-07-29T11:34:11;6.40;;;1.63;;
44564;SDS011;30275;51.822;-0.326;2022-07-29T11:39:32;4.07;;;1.70;;
44564;SDS011;30275;51.822;-0.326;2022-07-29T11:47:31;3.25;;;1.42;;
44564;SDS011;30275;51.822;-0.326;2022-07-29T11:50:02;1.85;;;1.35;;
44564;SDS011;30275;51.822;-0.326;2022-07-29T11:52:37;3.13;;;1.45;;
44564;SDS011;30275;51.822;-0.326;2022-07-29T11:55:15;5.10;;;1.70;;
44564;SDS011;30275;51.822;-0.326;2022-07-29T12:00:13;3.72;;;1.88;;
44564;SDS011;30275;51.822;-0.326;2022-07-29T12:03:09;4.78;;;1.83;;
44564;SDS011;30275;51.822;-0.326;2022-07-29T12:05:37;3.45;;;1.45;;
44564;SDS011;30275;51.822;-0.326;2022-07-29T12:08:05;3.88;;;1.67;;
44564;SDS011;30275;51.822;-0.326;2022-07-29T12:10:39;4.85;;;1.65;;
44564;SDS011;30275;51.822;-0.326;2022-07-29T12:13:05;3.65;;;1.67;;
44564;SDS011;30275;51.822;-0.326;2022-07-29T12:15:31;5.30;;;1.92;;
44564;SDS011;30275;51.822;-0.326;2022-07-29T12:17:57;3.67;;;1.80;;
44564;SDS011;30275;51.822;-0.326;2022-07-29T12:20:27;4.22;;;1.50;;
44564;SDS011;30275;51.822;-0.326;2022-07-29T12:22:54;3.25;;;1.42;;
44564;SDS011;30275;51.822;-0.326;2022-07-29T12:25:21;4.60;;;1.67;;
44564;SDS011;30275;51.822;-0.326;2022-07-29T12:28:01;3.85;;;2.00;;
44564;SDS011;30275;51.822;-0.326;2022-07-29T12:30:45;2.33;;;1.30;;
44564;SDS011;30275;51.822;-0.326;2022-07-29T12:35:42;3.97;;;1.30;;
44564;SDS011;30275;51.822;-0.326;2022-07-29T12:38:11;2.63;;;1.63;;
44564;SDS011;30275;51.822;-0.326;2022-07-29T12:40:37;1.90;;;1.20;;
44564;SDS011;30275;51.822;-0.326;2022-07-29T12:45:32;1.48;;;1.20;;
44564;SDS011;30275;51.822;-0.326;2022-07-29T12:47:58;1.63;;;1.42;;
44564;SDS011;30275;51.822;-0.326;2022-07-29T12:50:24;2.08;;;1.10;;
44564;SDS011;30275;51.822;-0.326;2022-07-29T12:52:50;1.80;;;1.42;;
44564;SDS011;30275;51.822;-0.326;2022-07-29T12:55:16;1.75;;;1.25;;
44564;SDS011;30275;51.822;-0.326;2022-07-29T12:58:04;2.65;;;1.45;;
44564;SDS011;30275;51.822;-0.326;2022-07-29T13:00:30;2.03;;;1.70;;
44564;SDS011;30275;51.822;-0.326;2022-07-29T13:02:56;2.33;;;1.38;;
44564;SDS011;30275;51.822;-0.326;2022-07-29T13:05:23;1.48;;;1.10;;
44564;SDS011;30275;51.822;-0.326;2022-07-29T13:08:09;1.67;;;1.55;;
44564;SDS011;30275;51.822;-0.326;2022-07-29T13:10:39;2.78;;;1.63;;
44564;SDS011;30275;51.822;-0.326;2022-07-29T13:13:09;2.45;;;1.35;;
44564;SDS011;30275;51.822;-0.326;2022-07-29T13:15:37;2.45;;;1.27;;
44564;SDS011;30275;51.822;-0.326;2022-07-29T13:18:04;2.08;;;1.50;;
44564;SDS011;30275;51.822;-0.326;2022-07-29T13:20:50;2.53;;;2.03;;
44564;SDS011;30275;51.822;-0.326;2022-07-29T13:23:16;2.67;;;1.20;;
44564;SDS011;30275;51.822;-0.326;2022-07-29T13:25:41;3.00;;;1.45;;
44564;SDS011;30275;51.822;-0.326;2022-07-29T13:28:07;1.77;;;1.20;;
44564;SDS011;30275;51.822;-0.326;2022-07-29T13:30:33;2.03;;;1.30;;
44564;SDS011;30275;51.822;-0.326;2022-07-29T13:32:58;1.95;;;1.40;;
44564;SDS011;30275;51.822;-0.326;2022-07-29T13:35:24;1.25;;;0.98;;
44564;SDS011;30275;51.822;-0.326;2022-07-29T13:37:50;1.45;;;1.20;;
44564;SDS011;30275;51.822;-0.326;2022-07-29T13:40:15;1.42;;;1.33;;
44564;SDS011;30275;51.822;-0.326;2022-07-29T13:42:41;1.52;;;1.40;;
44564;SDS011;30275;51.822;-0.326;2022-07-29T13:45:07;2.70;;;1.20;;
44564;SDS011;30275;51.822;-0.326;2022-07-29T13:47:33;2.58;;;1.23;;
44564;SDS011;30275;51.822;-0.326;2022-07-29T13:50:00;1.50;;;1.30;;
44564;SDS011;30275;51.822;-0.326;2022-07-29T13:52:27;1.35;;;1.10;;
44564;SDS011;30275;51.822;-0.326;2022-07-29T13:54:53;1.65;;;1.20;;
44564;SDS011;30275;51.822;-0.326;2022-07-29T13:57:19;4.43;;;1.25;;
44564;SDS011;30275;51.822;-0.326;2022-07-29T13:59:44;2.15;;;0.95;;
44564;SDS011;30275;51.822;-0.326;2022-07-29T14:02:10;1.40;;;1.30;;
44564;SDS011;30275;51.822;-0.326;2022-07-29T14:04:37;1.75;;;1.30;;
44564;SDS011;30275;51.822;-0.326;2022-07-29T14:07:03;1.88;;;1.15;;
44564;SDS011;30275;51.822;-0.326;2022-07-29T14:09:29;1.60;;;1.20;;
44564;SDS011;30275;51.822;-0.326;2022-07-29T14:11:56;1.55;;;1.08;;
44564;SDS011;30275;51.822;-0.326;2022-07-29T14:14:22;2.22;;;1.02;;
44564;SDS011;30275;51.822;-0.326;2022-07-29T14:16:47;1.85;;;1.20;;
44564;SDS011;30275;51.822;-0.326;2022-07-29T14:19:13;1.30;;;1.20;;
44564;SDS011;30275;51.822;-0.326;2022-07-29T14:21:39;1.67;;;1.20;;
44564;SDS011;30275;51.822;-0.326;2022-07-29T14:24:05;1.48;;;1.20;;
44564;SDS011;30275;51.822;-0.326;2022-07-29T14:26:31;1.90;;;1.13;;
44564;SDS011;30275;51.822;-0.326;2022-07-29T14:28:57;2.05;;;1.40;;
44564;SDS011;30275;51.822;-0.326;2022-07-29T14:31:22;1.00;;;0.90;;
44564;SDS011;30275;51.822;-0.326;2022-07-29T14:33:48;1.20;;;1.10;;
44564;SDS011;30275;51.822;-0.326;2022-07-29T14:36:14;1.75;;;1.10;;
44564;SDS011;30275;51.822;-0.326;2022-07-29T14:38:40;1.02;;;0.90;;
44564;SDS011;30275;51.822;-0.326;2022-07-29T14:41:06;2.53;;;1.52;;
44564;SDS011;30275;51.822;-0.326;2022-07-29T14:43:33;1.33;;;1.08;;
44564;SDS011;30275;51.822;-0.326;2022-07-29T14:45:59;1.48;;;1.10;;
44564;SDS011;30275;51.822;-0.326;2022-07-29T14:48:25;1.48;;;1.10;;
44564;SDS011;30275;51.822;-0.326;2022-07-29T14:50:51;1.25;;;1.00;;
44564;SDS011;30275;51.822;-0.326;2022-07-29T14:53:17;0.98;;;0.98;;
44564;SDS011;30275;51.822;-0.326;2022-07-29T14:55:43;1.45;;;1.05;;
44564;SDS011;30275;51.822;-0.326;2022-07-29T14:58:09;1.77;;;1.25;;
44564;SDS011;30275;51.822;-0.326;2022-07-29T15:00:34;1.80;;;1.10;;
44564;SDS011;30275;51.822;-0.326;2022-07-29T15:03:02;1.77;;;1.13;;
44564;SDS011;30275;51.822;-0.326;2022-07-29T15:05:28;1.20;;;1.10;;
44564;SDS011;30275;51.822;-0.326;2022-07-29T15:07:54;1.20;;;1.10;;
44564;SDS011;30275;51.822;-0.326;2022-07-29T15:10:20;1.55;;;1.35;;
44564;SDS011;30275;51.822;-0.326;2022-07-29T15:12:46;1.30;;;1.02;;
44564;SDS011;30275;51.822;-0.326;2022-07-29T15:15:11;1.73;;;1.23;;
44564;SDS011;30275;51.822;-0.326;2022-07-29T15:17:37;1.77;;;1.00;;
44564;SDS011;30275;51.822;-0.326;2022-07-29T15:20:03;1.45;;;1.20;;
44564;SDS011;30275;51.822;-0.326;2022-07-29T15:22:29;1.70;;;1.30;;
44564;SDS011;30275;51.822;-0.326;2022-07-29T15:24:55;1.23;;;0.98;;
44564;SDS011;30275;51.822;-0.326;2022-07-29T15:27:21;1.35;;;1.10;;
44564;SDS011;30275;51.822;-0.326;2022-07-29T15:29:46;2.75;;;1.10;;
44564;SDS011;30275;51.822;-0.326;2022-07-29T15:32:12;1.25;;;1.10;;
44564;SDS011;30275;51.822;-0.326;2022-07-29T15:34:39;1.00;;;1.00;;
44564;SDS011;30275;51.822;-0.326;2022-07-29T15:37:05;1.45;;;1.10;;
44564;SDS011;30275;51.822;-0.326;2022-07-29T15:39:31;1.52;;;1.10;;
44564;SDS011;30275;51.822;-0.326;2022-07-29T15:41:57;1.35;;;1.20;;
44564;SDS011;30275;51.822;-0.326;2022-07-29T15:44:24;1.10;;;1.00;;
44564;SDS011;30275;51.822;-0.326;2022-07-29T15:46:50;1.45;;;1.13;;
44564;SDS011;30275;51.822;-0.326;2022-07-29T15:49:38;1.63;;;1.00;;
44564;SDS011;30275;51.822;-0.326;2022-07-29T15:52:05;1.17;;;1.08;;
44564;SDS011;30275;51.822;-0.326;2022-07-29T15:54:36;1.15;;;0.88;;
44564;SDS011;30275;51.822;-0.326;2022-07-29T15:57:03;1.52;;;1.00;;
44564;SDS011;30275;51.822;-0.326;2022-07-29T15:59:30;1.05;;;1.00;;
44564;SDS011;30275;51.822;-0.326;2022-07-29T16:01:57;1.52;;;1.13;;
44564;SDS011;30275;51.822;-0.326;2022-07-29T16:04:23;1.20;;;1.10;;
44564;SDS011;30275;51.822;-0.326;2022-07-29T16:06:49;0.90;;;0.90;;